sensor_id;sensor_type;location;lat;lon;timestamp;pressure;altitude;pressure_sealevel;temperature;humidity
43153;BME280;28756;49.064;9.290;2023-01-19T00:02:24;98080.28;;;-4.11;100.00
43153;BME280;28756;49.064;9.290;2023-01-19T00:04:49;98085.34;;;-4.09;100.00
43153;BME280;28756;49.064;9.290;2023-01-19T00:07:15;98083.66;;;-4.14;100.00
43153;BME280;28756;49.064;9.290;2023-01-19T00:09:41;98080.28;;;-4.13;100.00
43153;BME280;28756;49.064;9.290;2023-01-19T00:12:07;98082.81;;;-4.13;100.00
43153;BME280;28756;49.064;9.290;2023-01-19T00:14:33;98091.28;;;-4.12;100.00
43153;BME280;28756;49.064;9.290;2023-01-19T00:16:59;98087.94;;;-4.17;100.00
43153;BME280;28756;49.064;9.290;2023-01-19T00:19:27;98087.94;;;-4.17;100.00
43153;BME280;28756;49.064;9.290;2023-01-19T00:21:53;98090.41;;;-4.09;100.00
43153;BME280;28756;49.064;9.290;2023-01-19T00:24:18;98092.91;;;-4.06;100.00
43153;BME280;28756;49.064;9.290;2023-01-19T00:26:45;98089.53;;;-4.07;100.00
43153;BME280;28756;49.064;9.290;2023-01-19T00:29:12;98095.44;;;-4.06;100.00
43153;BME280;28756;49.064;9.290;2023-01-19T00:31:38;98092.09;;;-4.08;100.00
43153;BME280;28756;49.064;9.290;2023-01-19T00:34:05;98096.25;;;-4.01;100.00
43153;BME280;28756;49.064;9.290;2023-01-19T00:36:32;98103.81;;;-3.97;100.00
43153;BME280;28756;49.064;9.290;2023-01-19T00:38:58;98094.34;;;-3.85;100.00
43153;BME280;28756;49.064;9.290;2023-01-19T00:41:25;98090.06;;;-3.82;100.00
43153;BME280;28756;49.064;9.290;2023-01-19T00:44:10;98090.88;;;-3.76;100.00
43153;BME280;28756;49.064;9.290;2023-01-19T00:46:38;98097.53;;;-3.69;100.00
43153;BME280;28756;49.064;9.290;2023-01-19T00:49:04;98099.19;;;-3.67;100.00
43153;BME280;28756;49.064;9.290;2023-01-19T00:51:30;98102.53;;;-3.63;100.00
43153;BME280;28756;49.064;9.290;2023-01-19T00:53:56;98093.22;;;-3.61;100.00
43153;BME280;28756;49.064;9.290;2023-01-19T00:56:24;98096.47;;;-3.51;100.00
43153;BME280;28756;49.064;9.290;2023-01-19T00:58:50;98097.28;;;-3.49;100.00
43153;BME280;28756;49.064;9.290;2023-01-19T01:01:15;98100.63;;;-3.45;100.00
43153;BME280;28756;49.064;9.290;2023-01-19T01:03:41;98099.75;;;-3.46;100.00
43153;BME280;28756;49.064;9.290;2023-01-19T01:06:07;98097.25;;;-3.47;100.00
43153;BME280;28756;49.064;9.290;2023-01-19T01:08:33;98097.28;;;-3.49;100.00
43153;BME280;28756;49.064;9.290;2023-01-19T01:11:00;98094.78;;;-3.52;100.00
43153;BME280;28756;49.064;9.290;2023-01-19T01:13:26;98099.09;;;-3.57;100.00
43153;BME280;28756;49.064;9.290;2023-01-19T01:15:53;98096.59;;;-3.62;100.00
43153;BME280;28756;49.064;9.290;2023-01-19T01:18:20;98093.25;;;-3.66;100.00
43153;BME280;28756;49.064;9.290;2023-01-19T01:20:46;98094.16;;;-3.70;100.00
43153;BME280;28756;49.064;9.290;2023-01-19T01:23:13;98098.47;;;-3.75;100.00
43153;BME280;28756;49.064;9.290;2023-01-19T01:25:39;98090.84;;;-3.75;100.00
43153;BME280;28756;49.064;9.290;2023-01-19T01:28:06;98102.78;;;-3.80;100.00
43153;BME280;28756;49.064;9.290;2023-01-19T01:30:37;98103.69;;;-3.89;100.00
43153;BME280;28756;49.064;9.290;2023-01-19T01:33:06;98113.94;;;-3.95;100.00
43153;BME280;28756;49.064;9.290;2023-01-19T01:35:32;98114.84;;;-3.99;100.00
43153;BME280;28756;49.064;9.290;2023-01-19T01:37:59;98120.81;;;-4.03;100.00
43153;BME280;28756;49.064;9.290;2023-01-19T01:40:26;98116.59;;;-4.06;100.00
43153;BME280;28756;49.064;9.290;2023-01-19T01:42:53;98117.47;;;-4.07;100.00
43153;BME280;28756;49.064;9.290;2023-01-19T01:45:36;98114.09;;;-4.09;100.00
43153;BME280;28756;49.064;9.290;2023-01-19T01:48:25;98120.03;;;-4.10;100.00
43153;BME280;28756;49.064;9.290;2023-01-19T01:50:59;98116.66;;;-4.10;100.00
43153;BME280;28756;49.064;9.290;2023-01-19T01:54:02;98121.72;;;-4.09;100.00
43153;BME280;28756;49.064;9.290;2023-01-19T01:56:46;98127.66;;;-4.08;100.00
43153;BME280;28756;49.064;9.290;2023-01-19T01:59:26;98131.91;;;-4.12;100.00
43153;BME280;28756;49.064;9.290;2023-01-19T02:02:02;98128.44;;;-4.06;100.00
43153;BME280;28756;49.064;9.290;2023-01-19T02:05:02;98130.19;;;-4.08;100.00
43153;BME280;28756;49.064;9.290;2023-01-19T02:10:25;98130.13;;;-4.02;100.00
43153;BME280;28756;49.064;9.290;2023-01-19T02:13:09;98131.81;;;-4.03;100.00
43153;BME280;28756;49.064;9.290;2023-01-19T02:15:43;98124.16;;;-4.00;100.00
43153;BME280;28756;49.064;9.290;2023-01-19T02:18:09;98131.69;;;-3.93;100.00
43153;BME280;28756;49.064;9.290;2023-01-19T02:20:35;98114.72;;;-3.88;100.00
43153;BME280;28756;49.064;9.290;2023-01-19T02:23:07;98116.38;;;-3.86;100.00
43153;BME280;28756;49.064;9.290;2023-01-19T02:25:36;98123.19;;;-3.89;100.00
43153;BME280;28756;49.064;9.290;2023-01-19T02:28:02;98113.88;;;-3.89;100.00
43153;BME280;28756;49.064;9.290;2023-01-19T02:30:29;98116.44;;;-3.90;100.00
43153;BME280;28756;49.064;9.290;2023-01-19T02:32:55;98113.88;;;-3.90;100.00
43153;BME280;28756;49.064;9.290;2023-01-19T02:35:21;98109.69;;;-3.93;100.00
43153;BME280;28756;49.064;9.290;2023-01-19T02:37:48;98112.22;;;-3.91;100.00
43153;BME280;28756;49.064;9.290;2023-01-19T02:40:16;98113.97;;;-3.97;100.00
43153;BME280;28756;49.064;9.290;2023-01-19T02:42:51;98104.69;;;-3.99;100.00
43153;BME280;28756;49.064;9.290;2023-01-19T02:45:21;98111.47;;;-4.00;100.00
43153;BME280;28756;49.064;9.290;2023-01-19T02:47:49;98109.81;;;-4.04;100.00
43153;BME280;28756;49.064;9.290;2023-01-19T02:50:44;98119.16;;;-4.06;100.00
43153;BME280;28756;49.064;9.290;2023-01-19T02:53:43;98125.09;;;-4.07;100.00
43153;BME280;28756;49.064;9.290;2023-01-19T02:56:54;98120.91;;;-4.13;100.00
43153;BME280;28756;49.064;9.290;2023-01-19T03:02:57;98122.66;;;-4.18;100.00
43153;BME280;28756;49.064;9.290;2023-01-19T03:05:43;98115.03;;;-4.18;100.00
43153;BME280;28756;49.064;9.290;2023-01-19T03:08:52;98118.41;;;-4.17;100.00
43153;BME280;28756;49.064;9.290;2023-01-19T03:11:20;98120.91;;;-4.13;100.00
43153;BME280;28756;49.064;9.290;2023-01-19T03:14:02;98128.53;;;-4.11;100.00
43153;BME280;28756;49.064;9.290;2023-01-19T03:16:50;98128.53;;;-4.11;100.00
43153;BME280;28756;49.064;9.290;2023-01-19T03:19:26;98131.91;;;-4.14;100.00
43153;BME280;28756;49.064;9.290;2023-01-19T03:22:09;98125.09;;;-4.07;100.00
43153;BME280;28756;49.064;9.290;2023-01-19T03:24:41;98132.69;;;-4.07;100.00
43153;BME280;28756;49.064;9.290;2023-01-19T03:27:25;98129.34;;;-4.07;100.00
43153;BME280;28756;49.064;9.290;2023-01-19T03:29:57;98134.44;;;-4.10;100.00
43153;BME280;28756;49.064;9.290;2023-01-19T03:32:29;98120.06;;;-4.13;100.00
43153;BME280;28756;49.064;9.290;2023-01-19T03:34:59;98120.16;;;-4.19;100.00
43153;BME280;28756;49.064;9.290;2023-01-19T03:37:26;98114.22;;;-4.20;100.00
43153;BME280;28756;49.064;9.290;2023-01-19T03:39:54;98120.16;;;-4.19;100.00
43153;BME280;28756;49.064;9.290;2023-01-19T03:42:21;98124.41;;;-4.24;100.00
43153;BME280;28756;49.064;9.290;2023-01-19T03:44:48;98123.59;;;-4.25;100.00
43153;BME280;28756;49.064;9.290;2023-01-19T03:47:17;98121.03;;;-4.25;100.00
43153;BME280;28756;49.064;9.290;2023-01-19T03:49:44;98127.84;;;-4.27;100.00
43153;BME280;28756;49.064;9.290;2023-01-19T03:52:11;98126.16;;;-4.28;100.00
43153;BME280;28756;49.064;9.290;2023-01-19T03:54:37;98133.75;;;-4.28;100.00
43153;BME280;28756;49.064;9.290;2023-01-19T03:57:04;98132.03;;;-4.24;100.00
43153;BME280;28756;49.064;9.290;2023-01-19T03:59:29;98131.16;;;-4.20;100.00
43153;BME280;28756;49.064;9.290;2023-01-19T04:01:55;98132.84;;;-4.21;100.00
43153;BME280;28756;49.064;9.290;2023-01-19T04:04:21;98129.44;;;-4.17;100.00
43153;BME280;28756;49.064;9.290;2023-01-19T04:06:47;98133.66;;;-4.17;100.00
43153;BME280;28756;49.064;9.290;2023-01-19T04:09:12;98135.34;;;-4.16;100.00
43153;BME280;28756;49.064;9.290;2023-01-19T04:11:38;98131.97;;;-4.17;100.00
43153;BME280;28756;49.064;9.290;2023-01-19T04:14:04;98143.75;;;-4.13;100.00
43153;BME280;28756;49.064;9.290;2023-01-19T04:16:29;98143.81;;;-4.17;100.00
43153;BME280;28756;49.064;9.290;2023-01-19T04:18:55;98141.31;;;-4.20;100.00
43153;BME280;28756;49.064;9.290;2023-01-19T04:21:21;98152.31;;;-4.21;100.00
43153;BME280;28756;49.064;9.290;2023-01-19T04:23:47;98154.06;;;-4.28;100.00
43153;BME280;28756;49.064;9.290;2023-01-19T04:26:15;98155.84;;;-4.35;100.00
43153;BME280;28756;49.064;9.290;2023-01-19T04:28:40;98151.63;;;-4.37;100.00
43153;BME280;28756;49.064;9.290;2023-01-19T04:31:07;98157.56;;;-4.37;100.00
43153;BME280;28756;49.064;9.290;2023-01-19T04:33:33;98167.63;;;-4.29;100.00
43153;BME280;28756;49.064;9.290;2023-01-19T04:35:59;98161.66;;;-4.25;100.00
43153;BME280;28756;49.064;9.290;2023-01-19T04:38:25;98163.25;;;-4.13;100.00
43153;BME280;28756;49.064;9.290;2023-01-19T04:40:52;98159.81;;;-4.09;100.00
43153;BME280;28756;49.064;9.290;2023-01-19T04:43:19;98169.91;;;-4.03;100.00
43153;BME280;28756;49.064;9.290;2023-01-19T04:45:46;98159.69;;;-3.98;100.00
43153;BME280;28756;49.064;9.290;2023-01-19T04:48:12;98161.41;;;-3.99;100.00
43153;BME280;28756;49.064;9.290;2023-01-19T04:50:38;98157.94;;;-3.91;100.00
43153;BME280;28756;49.064;9.290;2023-01-19T04:53:04;98157.94;;;-3.91;100.00
43153;BME280;28756;49.064;9.290;2023-01-19T04:55:30;98151.97;;;-3.89;100.00
43153;BME280;28756;49.064;9.290;2023-01-19T04:57:56;98160.41;;;-3.85;100.00
43153;BME280;28756;49.064;9.290;2023-01-19T05:00:22;98167.19;;;-3.86;100.00
43153;BME280;28756;49.064;9.290;2023-01-19T05:02:48;98163.78;;;-3.85;100.00
43153;BME280;28756;49.064;9.290;2023-01-19T05:05:15;98165.50;;;-3.87;100.00
43153;BME280;28756;49.064;9.290;2023-01-19T05:07:41;98171.41;;;-3.85;100.00
43153;BME280;28756;49.064;9.290;2023-01-19T05:10:08;98167.19;;;-3.86;100.00
43153;BME280;28756;49.064;9.290;2023-01-19T05:12:34;98166.34;;;-3.85;100.00
43153;BME280;28756;49.064;9.290;2023-01-19T05:15:01;98173.13;;;-3.87;100.00
43153;BME280;28756;49.064;9.290;2023-01-19T05:17:26;98172.16;;;-3.78;100.00
43153;BME280;28756;49.064;9.290;2023-01-19T05:19:52;98172.16;;;-3.76;100.00
43153;BME280;28756;49.064;9.290;2023-01-19T05:22:18;98165.44;;;-3.79;100.00
43153;BME280;28756;49.064;9.290;2023-01-19T05:24:44;98171.34;;;-3.78;100.00
43153;BME280;28756;49.064;9.290;2023-01-19T05:27:10;98172.97;;;-3.74;100.00
43153;BME280;28756;49.064;9.290;2023-01-19T05:29:36;98172.06;;;-3.69;100.00
43153;BME280;28756;49.064;9.290;2023-01-19T05:32:01;98169.53;;;-3.67;100.00
43153;BME280;28756;49.064;9.290;2023-01-19T05:34:27;98173.78;;;-3.69;100.00
43153;BME280;28756;49.064;9.290;2023-01-19T05:36:53;98176.31;;;-3.69;100.00
43153;BME280;28756;49.064;9.290;2023-01-19T05:39:19;98177.16;;;-3.67;100.00
43153;BME280;28756;49.064;9.290;2023-01-19T05:41:45;98184.78;;;-3.67;100.00
43153;BME280;28756;49.064;9.290;2023-01-19T05:44:11;98177.91;;;-3.60;100.00
43153;BME280;28756;49.064;9.290;2023-01-19T05:46:38;98181.34;;;-3.65;100.00
43153;BME280;28756;49.064;9.290;2023-01-19T05:49:04;98188.13;;;-3.65;100.00
43153;BME280;28756;49.064;9.290;2023-01-19T05:51:35;98186.44;;;-3.66;100.00
43153;BME280;28756;49.064;9.290;2023-01-19T05:54:04;98189.81;;;-3.64;100.00
43153;BME280;28756;49.064;9.290;2023-01-19T05:56:30;98190.69;;;-3.67;100.00
43153;BME280;28756;49.064;9.290;2023-01-19T05:58:56;98188.16;;;-3.67;100.00
43153;BME280;28756;49.064;9.290;2023-01-19T06:01:22;98193.22;;;-3.67;100.00
43153;BME280;28756;49.064;9.290;2023-01-19T06:03:47;98196.63;;;-3.68;100.00
43153;BME280;28756;49.064;9.290;2023-01-19T06:06:13;98200.88;;;-3.68;100.00
43153;BME280;28756;49.064;9.290;2023-01-19T06:08:40;98197.53;;;-3.72;100.00
43153;BME280;28756;49.064;9.290;2023-01-19T06:11:06;98194.19;;;-3.77;100.00
43153;BME280;28756;49.064;9.290;2023-01-19T06:13:33;98213.72;;;-3.82;100.00
43153;BME280;28756;49.064;9.290;2023-01-19T06:16:00;98216.28;;;-3.85;100.00
43153;BME280;28756;49.064;9.290;2023-01-19T06:18:27;98223.06;;;-3.86;100.00
43153;BME280;28756;49.064;9.290;2023-01-19T06:20:53;98230.59;;;-3.78;100.00
43153;BME280;28756;49.064;9.290;2023-01-19T06:23:24;98228.81;;;-3.70;100.00
43153;BME280;28756;49.064;9.290;2023-01-19T06:25:50;98223.69;;;-3.63;100.00
43153;BME280;28756;49.064;9.290;2023-01-19T06:28:16;98229.63;;;-3.65;100.00
43153;BME280;28756;49.064;9.290;2023-01-19T06:30:44;98231.28;;;-3.60;100.00
43153;BME280;28756;49.064;9.290;2023-01-19T06:33:10;98234.59;;;-3.54;100.00
43153;BME280;28756;49.064;9.290;2023-01-19T06:35:36;98233.72;;;-3.51;100.00
43153;BME280;28756;49.064;9.290;2023-01-19T06:38:02;98232.03;;;-3.52;100.00
43153;BME280;28756;49.064;9.290;2023-01-19T06:40:27;98232.84;;;-3.49;100.00
43153;BME280;28756;49.064;9.290;2023-01-19T06:42:53;98226.91;;;-3.51;100.00
43153;BME280;28756;49.064;9.290;2023-01-19T06:45:19;98226.03;;;-3.46;100.00
43153;BME280;28756;49.064;9.290;2023-01-19T06:47:46;98229.38;;;-3.43;100.00
43153;BME280;28756;49.064;9.290;2023-01-19T06:50:12;98231.06;;;-3.42;100.00
43153;BME280;28756;49.064;9.290;2023-01-19T06:52:38;98226.78;;;-3.38;100.00
43153;BME280;28756;49.064;9.290;2023-01-19T06:55:09;98238.59;;;-3.33;100.00
43153;BME280;28756;49.064;9.290;2023-01-19T06:57:36;98231.81;;;-3.34;100.00
43153;BME280;28756;49.064;9.290;2023-01-19T07:00:04;98228.47;;;-3.37;100.00
43153;BME280;28756;49.064;9.290;2023-01-19T07:02:51;98222.66;;;-3.45;100.00
43153;BME280;28756;49.064;9.290;2023-01-19T07:05:17;98227.81;;;-3.52;100.00
43153;BME280;28756;49.064;9.290;2023-01-19T07:07:43;98222.78;;;-3.59;100.00
43153;BME280;28756;49.064;9.290;2023-01-19T07:10:11;98218.59;;;-3.62;100.00
43153;BME280;28756;49.064;9.290;2023-01-19T07:12:38;98230.53;;;-3.67;100.00
43153;BME280;28756;49.064;9.290;2023-01-19T07:15:05;98229.75;;;-3.77;100.00
43153;BME280;28756;49.064;9.290;2023-01-19T07:17:31;98229.78;;;-3.82;100.00
43153;BME280;28756;49.064;9.290;2023-01-19T07:19:56;98235.75;;;-3.84;100.00
43153;BME280;28756;49.064;9.290;2023-01-19T07:22:22;98230.72;;;-3.87;100.00
43153;BME280;28756;49.064;9.290;2023-01-19T07:24:48;98233.34;;;-3.97;100.00
43153;BME280;28756;49.064;9.290;2023-01-19T07:27:13;98232.53;;;-4.00;100.00
43153;BME280;28756;49.064;9.290;2023-01-19T07:29:41;98239.31;;;-3.99;100.00
43153;BME280;28756;49.064;9.290;2023-01-19T07:32:07;98236.81;;;-4.04;100.00
43153;BME280;28756;49.064;9.290;2023-01-19T07:34:33;98235.94;;;-4.04;100.00
43153;BME280;28756;49.064;9.290;2023-01-19T07:36:59;98234.25;;;-4.02;100.00
43153;BME280;28756;49.064;9.290;2023-01-19T07:39:25;98239.31;;;-3.99;100.00
43153;BME280;28756;49.064;9.290;2023-01-19T07:41:50;98250.25;;;-3.91;100.00
43153;BME280;28756;49.064;9.290;2023-01-19T07:44:17;98247.59;;;-3.80;100.00
43153;BME280;28756;49.064;9.290;2023-01-19T07:46:42;98244.94;;;-3.72;100.00
43153;BME280;28756;49.064;9.290;2023-01-19T07:49:08;98244.84;;;-3.60;100.00
43153;BME280;28756;49.064;9.290;2023-01-19T07:51:35;98246.41;;;-3.50;100.00
43153;BME280;28756;49.064;9.290;2023-01-19T07:54:00;98254.78;;;-3.40;100.00
43153;BME280;28756;49.064;9.290;2023-01-19T07:56:26;98251.34;;;-3.36;100.00
43153;BME280;28756;49.064;9.290;2023-01-19T07:58:54;98246.19;;;-3.31;100.00
43153;BME280;28756;49.064;9.290;2023-01-19T08:01:20;98247.81;;;-3.24;100.00
43153;BME280;28756;49.064;9.290;2023-01-19T08:03:47;98247.78;;;-3.22;100.00
43153;BME280;28756;49.064;9.290;2023-01-19T08:06:23;98252.84;;;-3.19;100.00
43153;BME280;28756;49.064;9.290;2023-01-19T08:08:51;98256.16;;;-3.14;100.00
43153;BME280;28756;49.064;9.290;2023-01-19T08:11:17;98251.91;;;-3.12;100.00
43153;BME280;28756;49.064;9.290;2023-01-19T08:13:43;98262.91;;;-3.10;100.00
43153;BME280;28756;49.064;9.290;2023-01-19T08:16:09;98250.97;;;-3.08;100.00
43153;BME280;28756;49.064;9.290;2023-01-19T08:18:35;98259.38;;;-3.01;100.00
43153;BME280;28756;49.064;9.290;2023-01-19T08:21:00;98266.06;;;-2.94;100.00
43153;BME280;28756;49.064;9.290;2023-01-19T08:23:26;98266.94;;;-2.93;100.00
43153;BME280;28756;49.064;9.290;2023-01-19T08:25:53;98268.59;;;-2.91;100.00
43153;BME280;28756;49.064;9.290;2023-01-19T08:28:19;98254.13;;;-2.87;100.00
43153;BME280;28756;49.064;9.290;2023-01-19T08:30:45;98271.03;;;-2.84;100.00
43153;BME280;28756;49.064;9.290;2023-01-19T08:33:19;98266.78;;;-2.82;100.00
43153;BME280;28756;49.064;9.290;2023-01-19T08:35:51;98260.75;;;-2.75;100.00
43153;BME280;28756;49.064;9.290;2023-01-19T08:38:17;98264.94;;;-2.73;100.00
43153;BME280;28756;49.064;9.290;2023-01-19T08:40:44;98262.38;;;-2.71;100.00
43153;BME280;28756;49.064;9.290;2023-01-19T08:43:15;98267.38;;;-2.63;100.00
43153;BME280;28756;49.064;9.290;2023-01-19T08:45:45;98269.91;;;-2.63;100.00
43153;BME280;28756;49.064;9.290;2023-01-19T08:48:17;98269.84;;;-2.59;100.00
43153;BME280;28756;49.064;9.290;2023-01-19T08:50:45;98266.50;;;-2.62;100.00
43153;BME280;28756;49.064;9.290;2023-01-19T08:53:12;98274.00;;;-2.53;100.00
43153;BME280;28756;49.064;9.290;2023-01-19T08:55:38;98270.50;;;-2.46;100.00
43153;BME280;28756;49.064;9.290;2023-01-19T08:58:05;98273.88;;;-2.45;100.00
43153;BME280;28756;49.064;9.290;2023-01-19T09:00:32;98272.22;;;-2.48;100.00
43153;BME280;28756;49.064;9.290;2023-01-19T09:03:03;98267.88;;;-2.40;100.00
43153;BME280;28756;49.064;9.290;2023-01-19T09:05:31;98271.25;;;-2.39;100.00
43153;BME280;28756;49.064;9.290;2023-01-19T09:08:00;98271.03;;;-2.25;100.00
43153;BME280;28756;49.064;9.290;2023-01-19T09:10:28;98275.31;;;-2.27;100.00
43153;BME280;28756;49.064;9.290;2023-01-19T09:13:07;98277.81;;;-2.24;100.00
43153;BME280;28756;49.064;9.290;2023-01-19T09:15:39;98282.00;;;-2.22;100.00
43153;BME280;28756;49.064;9.290;2023-01-19T09:18:11;98280.31;;;-2.21;100.00
43153;BME280;28756;49.064;9.290;2023-01-19T09:20:39;98286.22;;;-2.19;100.00
43153;BME280;28756;49.064;9.290;2023-01-19T09:23:11;98285.44;;;-2.23;100.00
43153;BME280;28756;49.064;9.290;2023-01-19T09:25:39;98292.97;;;-2.15;100.00
43153;BME280;28756;49.064;9.290;2023-01-19T09:28:06;98288.59;;;-2.07;100.00
43153;BME280;28756;49.064;9.290;2023-01-19T09:30:32;98289.50;;;-2.12;100.00
43153;BME280;28756;49.064;9.290;2023-01-19T09:33:04;98295.66;;;-2.24;100.00
43153;BME280;28756;49.064;9.290;2023-01-19T09:35:34;98288.63;;;-2.10;100.00
43153;BME280;28756;49.064;9.290;2023-01-19T09:38:00;98280.94;;;-2.08;100.00
43153;BME280;28756;49.064;9.290;2023-01-19T09:40:27;98288.41;;;-1.97;100.00
43153;BME280;28756;49.064;9.290;2023-01-19T09:42:59;98279.75;;;-1.87;100.00
43153;BME280;28756;49.064;9.290;2023-01-19T09:46:03;98279.72;;;-1.85;100.00
43153;BME280;28756;49.064;9.290;2023-01-19T09:48:52;98275.19;;;-1.69;100.00
43153;BME280;28756;49.064;9.290;2023-01-19T09:51:37;98271.75;;;-1.67;100.00
43153;BME280;28756;49.064;9.290;2023-01-19T09:54:19;98275.94;;;-1.63;100.00
43153;BME280;28756;49.064;9.290;2023-01-19T09:56:48;98271.47;;;-1.51;100.00
43153;BME280;28756;49.064;9.290;2023-01-19T09:59:27;98264.28;;;-1.31;100.00
43153;BME280;28756;49.064;9.290;2023-01-19T10:02:11;98264.16;;;-1.24;100.00
43153;BME280;28756;49.064;9.290;2023-01-19T10:10:32;98260.97;;;-1.34;100.00
43153;BME280;28756;49.064;9.290;2023-01-19T10:16:02;98264.16;;;-1.24;100.00
43153;BME280;28756;49.064;9.290;2023-01-19T10:18:48;98259.94;;;-1.25;100.00
43153;BME280;28756;49.064;9.290;2023-01-19T10:21:25;98260.81;;;-1.27;100.00
43153;BME280;28756;49.064;9.290;2023-01-19T10:24:03;98263.22;;;-1.20;100.00
43153;BME280;28756;49.064;9.290;2023-01-19T10:26:44;98269.19;;;-1.20;100.00
43153;BME280;28756;49.064;9.290;2023-01-19T10:29:27;98258.09;;;-1.19;100.00
43153;BME280;28756;49.064;9.290;2023-01-19T10:32:24;98268.09;;;-1.09;100.00
43153;BME280;28756;49.064;9.290;2023-01-19T10:34:52;98270.78;;;-1.16;100.00
43153;BME280;28756;49.064;9.290;2023-01-19T10:37:31;98269.19;;;-1.20;100.00
43153;BME280;28756;49.064;9.290;2023-01-19T10:42:39;98280.84;;;-1.08;100.00
43153;BME280;28756;49.064;9.290;2023-01-19T10:45:17;98274.84;;;-1.05;100.00
43153;BME280;28756;49.064;9.290;2023-01-19T10:47:45;98278.94;;;-0.98;100.00
43153;BME280;28756;49.064;9.290;2023-01-19T10:50:34;98274.88;;;-1.08;100.00
43153;BME280;28756;49.064;9.290;2023-01-19T10:53:03;98272.44;;;-1.13;100.00
43153;BME280;28756;49.064;9.290;2023-01-19T10:55:38;98280.81;;;-1.06;100.00
43153;BME280;28756;49.064;9.290;2023-01-19T10:58:28;98284.44;;;-1.18;100.00
43153;BME280;28756;49.064;9.290;2023-01-19T11:00:55;98286.91;;;-1.14;100.00
43153;BME280;28756;49.064;9.290;2023-01-19T11:03:38;98285.22;;;-1.15;100.00
43153;BME280;28756;49.064;9.290;2023-01-19T11:08:41;98275.38;;;-1.33;100.00
43153;BME280;28756;49.064;9.290;2023-01-19T11:11:08;98281.13;;;-1.22;100.00
43153;BME280;28756;49.064;9.290;2023-01-19T11:13:43;98278.38;;;-1.13;100.00
43153;BME280;28756;49.064;9.290;2023-01-19T11:16:30;98283.72;;;-1.25;100.00
43153;BME280;28756;49.064;9.290;2023-01-19T11:18:59;98287.81;;;-1.18;100.00
43153;BME280;28756;49.064;9.290;2023-01-19T11:21:29;98280.03;;;-1.10;100.00
43153;BME280;28756;49.064;9.290;2023-01-19T11:24:02;98279.03;;;-1.03;100.00
43153;BME280;28756;49.064;9.290;2023-01-19T11:26:47;98274.25;;;-0.77;100.00
43153;BME280;28756;49.064;9.290;2023-01-19T11:29:24;98265.19;;;-0.52;100.00
43153;BME280;28756;49.064;9.290;2023-01-19T11:31:51;98256.69;;;-0.52;100.00
43153;BME280;28756;49.064;9.290;2023-01-19T11:34:33;98265.00;;;-0.44;100.00
43153;BME280;28756;49.064;9.290;2023-01-19T11:37:03;98255.69;;;-0.46;100.00
43153;BME280;28756;49.064;9.290;2023-01-19T11:39:31;98261.84;;;-0.55;100.00
43153;BME280;28756;49.064;9.290;2023-01-19T11:42:11;98254.34;;;-0.61;100.00
43153;BME280;28756;49.064;9.290;2023-01-19T11:52:42;98258.28;;;-0.87;100.00
43153;BME280;28756;49.064;9.290;2023-01-19T11:58:14;98254.81;;;-0.85;100.00
43153;BME280;28756;49.064;9.290;2023-01-19T12:01:18;98263.66;;;-1.00;100.00
43153;BME280;28756;49.064;9.290;2023-01-19T12:04:18;98272.06;;;-0.94;100.00
43153;BME280;28756;49.064;9.290;2023-01-19T12:06:53;98269.50;;;-0.94;100.00
43153;BME280;28756;49.064;9.290;2023-01-19T12:09:27;98273.78;;;-0.95;100.00
43153;BME280;28756;49.064;9.290;2023-01-19T12:12:00;98273.78;;;-0.95;100.00
43153;BME280;28756;49.064;9.290;2023-01-19T12:14:37;98277.16;;;-0.94;100.00
43153;BME280;28756;49.064;9.290;2023-01-19T12:17:10;98271.16;;;-0.92;100.00
43153;BME280;28756;49.064;9.290;2023-01-19T12:20:12;98274.44;;;-0.87;100.00
43153;BME280;28756;49.064;9.290;2023-01-19T12:22:46;98276.06;;;-0.83;100.00
43153;BME280;28756;49.064;9.290;2023-01-19T12:25:24;98281.13;;;-0.80;100.00
43153;BME280;28756;49.064;9.290;2023-01-19T12:27:54;98279.44;;;-0.82;100.00
43153;BME280;28756;49.064;9.290;2023-01-19T12:30:26;98279.44;;;-0.82;100.00
43153;BME280;28756;49.064;9.290;2023-01-19T12:35:59;98276.56;;;-0.67;100.00
43153;BME280;28756;49.064;9.290;2023-01-19T12:38:49;98267.97;;;-0.62;100.00
43153;BME280;28756;49.064;9.290;2023-01-19T12:41:29;98270.69;;;-0.70;100.00
43153;BME280;28756;49.064;9.290;2023-01-19T12:46:59;98270.38;;;-0.56;100.00
43153;BME280;28756;49.064;9.290;2023-01-19T12:49:39;98263.78;;;-0.65;100.00
43153;BME280;28756;49.064;9.290;2023-01-19T12:52:20;98266.34;;;-0.65;100.00
43153;BME280;28756;49.064;9.290;2023-01-19T12:57:36;98270.66;;;-0.31;100.00
43153;BME280;28756;49.064;9.290;2023-01-19T13:00:30;98271.41;;;-0.27;100.00
43153;BME280;28756;49.064;9.290;2023-01-19T13:05:54;98264.41;;;-0.18;100.00
43153;BME280;28756;49.064;9.290;2023-01-19T13:08:53;98267.94;;;-0.23;100.00
43153;BME280;28756;49.064;9.290;2023-01-19T13:11:18;98265.75;;;-0.39;100.00
43153;BME280;28756;49.064;9.290;2023-01-19T13:14:33;98275.03;;;-0.36;100.00
43153;BME280;28756;49.064;9.290;2023-01-19T13:16:51;98270.25;;;-0.50;100.00
43153;BME280;28756;49.064;9.290;2023-01-19T13:19:46;98270.91;;;-0.42;100.00
43153;BME280;28756;49.064;9.290;2023-01-19T13:25:47;98260.03;;;-0.50;100.00
43153;BME280;28756;49.064;9.290;2023-01-19T13:28:17;98267.53;;;-0.42;100.00
43153;BME280;28756;49.064;9.290;2023-01-19T13:30:55;98263.28;;;-0.43;100.00
43153;BME280;28756;49.064;9.290;2023-01-19T13:33:26;98255.66;;;-0.45;100.00
43153;BME280;28756;49.064;9.290;2023-01-19T13:35:56;98259.91;;;-0.44;100.00
43153;BME280;28756;49.064;9.290;2023-01-19T13:38:25;98265.88;;;-0.45;100.00
43153;BME280;28756;49.064;9.290;2023-01-19T13:40:53;98260.69;;;-0.42;100.00
43153;BME280;28756;49.064;9.290;2023-01-19T13:43:28;98264.88;;;-0.39;100.00
43153;BME280;28756;49.064;9.290;2023-01-19T13:45:55;98263.13;;;-0.36;100.00
43153;BME280;28756;49.064;9.290;2023-01-19T13:48:23;98262.22;;;-0.33;100.00
43153;BME280;28756;49.064;9.290;2023-01-19T13:51:04;98264.00;;;-0.38;100.00
43153;BME280;28756;49.064;9.290;2023-01-19T13:53:31;98264.75;;;-0.33;100.00
43153;BME280;28756;49.064;9.290;2023-01-19T13:56:08;98270.78;;;-0.36;100.00
43153;BME280;28756;49.064;9.290;2023-01-19T13:58:40;98271.56;;;-0.34;100.00